Time;durP1;ratioP1;P1;durP2;ratioP2;P2;SDS_P1;SDS_P2;PMS_P1;PMS_P2;Temp;Humidity;BMP_temperature;BMP_pressure;BME280_temperature;BME280_humidity;BME280_pressure;Samples;Min_cycle;Max_cycle;Signal;HPM_P1;HPM_P2
2023/08/30 00:00:19;;;;;;;0.00;0.00;;;13.90;99.50;;;;;;5042307;28;20025;-75
2023/08/30 00:02:45;;;;;;;1.35;0.47;;;13.80;99.80;;;;;;5042199;28;20242;-74
2023/08/30 00:05:11;;;;;;;0.30;0.30;;;13.80;99.80;;;;;;5042699;28;20075;-74
2023/08/30 00:07:37;;;;;;;0.00;0.00;;;13.70;99.90;;;;;;5042248;28;20754;-74
2023/08/30 00:10:03;;;;;;;0.00;0.00;;;13.50;99.90;;;;;;5041367;28;20753;-74
2023/08/30 00:12:29;;;;;;;0.00;0.00;;;13.40;99.90;;;;;;5041957;28;20051;-73
2023/08/30 00:14:55;;;;;;;0.00;0.00;;;13.50;99.90;;;;;;5042305;28;20033;-71
2023/08/30 00:17:22;;;;;;;0.10;0.10;;;13.60;99.90;;;;;;5041041;28;20040;-73
2023/08/30 00:19:48;;;;;;;0.10;0.10;;;13.70;99.90;;;;;;5042006;28;20032;-74
2023/08/30 00:22:14;;;;;;;0.10;0.10;;;13.60;99.90;;;;;;5042187;28;20029;-74
2023/08/30 00:24:40;;;;;;;0.10;0.10;;;13.60;99.90;;;;;;5041959;28;20490;-74
2023/08/30 00:27:06;;;;;;;0.10;0.10;;;13.60;99.90;;;;;;5040427;28;20032;-73
2023/08/30 00:29:32;;;;;;;0.00;0.00;;;13.70;99.90;;;;;;5041441;28;20029;-74
2023/08/30 00:31:57;;;;;;;0.00;0.00;;;13.70;99.90;;;;;;5046084;28;20082;-73
2023/08/30 00:34:23;;;;;;;0.10;0.10;;;13.50;99.90;;;;;;5045992;28;20049;-73
2023/08/30 00:36:49;;;;;;;0.20;0.20;;;13.50;99.90;;;;;;5044151;28;20039;-73
2023/08/30 00:39:14;;;;;;;0.10;0.10;;;13.60;99.90;;;;;;5046234;28;20082;-75
2023/08/30 00:41:40;;;;;;;0.40;0.37;;;13.50;99.90;;;;;;5045825;28;20028;-74
2023/08/30 00:44:06;;;;;;;0.00;0.00;;;13.40;99.90;;;;;;5046311;28;20056;-73
2023/08/30 00:46:36;;;;;;;0.20;0.20;;;13.50;99.90;;;;;;5044132;28;20102;-74
2023/08/30 00:49:03;;;;;;;0.17;0.17;;;13.30;99.90;;;;;;5046158;28;20100;-74
2023/08/30 00:51:29;;;;;;;0.10;0.10;;;13.30;99.90;;;;;;5045424;28;20051;-74
2023/08/30 00:53:55;;;;;;;0.10;0.10;;;13.20;99.90;;;;;;5045922;28;20064;-74
2023/08/30 00:56:21;;;;;;;0.20;0.20;;;13.20;99.90;;;;;;5045513;28;20074;-74
2023/08/30 00:58:50;;;;;;;0.10;0.10;;;13.20;99.90;;;;;;5045551;28;20033;-74
2023/08/30 01:01:17;;;;;;;0.00;0.00;;;13.10;99.90;;;;;;5043842;28;20032;-73
2023/08/30 01:03:43;;;;;;;0.10;0.10;;;13.20;99.90;;;;;;5043751;28;20558;-74
2023/08/30 01:06:08;;;;;;;0.00;0.00;;;13.30;99.90;;;;;;5044799;28;20025;-74
2023/08/30 01:08:36;;;;;;;0.10;0.10;;;13.20;99.90;;;;;;5044559;28;20561;-75
2023/08/30 01:11:31;;;;;;;0.10;0.10;;;13.30;99.90;;;;;;5033729;28;20055;-73
2023/08/30 01:14:04;;;;;;;0.00;0.00;;;13.30;99.90;;;;;;5045207;28;20134;-74
2023/08/30 01:16:31;;;;;;;0.10;0.10;;;13.20;99.90;;;;;;5043619;28;20056;-75
2023/08/30 01:18:59;;;;;;;0.10;0.10;;;13.20;99.90;;;;;;5045072;28;20028;-74
2023/08/30 01:22:04;;;;;;;0.10;0.10;;;13.20;99.90;;;;;;5043568;28;20499;-74
2023/08/30 01:24:43;;;;;;;0.57;0.57;;;13.00;99.90;;;;;;5003195;28;20041;-73
2023/08/30 01:27:10;;;;;;;0.00;0.00;;;12.90;99.90;;;;;;5044659;28;20025;-74
2023/08/30 01:29:42;;;;;;;0.10;0.10;;;12.80;99.90;;;;;;5045420;28;20056;-74
2023/08/30 01:32:09;;;;;;;0.20;0.20;;;12.80;99.90;;;;;;5045400;28;20041;-75
2023/08/30 01:34:37;;;;;;;0.00;0.00;;;12.70;99.90;;;;;;5043493;28;20068;-74
2023/08/30 01:37:06;;;;;;;0.10;0.10;;;12.60;99.90;;;;;;5043198;28;20029;-74
2023/08/30 01:39:33;;;;;;;0.20;0.20;;;12.70;99.90;;;;;;5045606;28;20432;-73
2023/08/30 01:42:00;;;;;;;0.00;0.00;;;12.70;99.90;;;;;;5044316;28;20025;-74
2023/08/30 01:44:30;;;;;;;0.08;0.08;;;12.60;99.90;;;;;;5040870;28;20040;-73
2023/08/30 01:46:57;;;;;;;0.10;0.10;;;12.40;99.90;;;;;;5042774;28;20523;-75
2023/08/30 01:49:25;;;;;;;0.00;0.00;;;12.40;99.90;;;;;;5042844;28;20040;-74
2023/08/30 01:51:52;;;;;;;0.10;0.10;;;12.50;99.90;;;;;;5040402;28;20905;-74
2023/08/30 01:54:18;;;;;;;0.40;0.40;;;12.60;99.90;;;;;;5042665;28;20031;-74
2023/08/30 01:56:46;;;;;;;0.17;0.17;;;12.60;99.90;;;;;;5038997;28;20032;-75
2023/08/30 01:59:12;;;;;;;0.10;0.10;;;12.50;99.90;;;;;;5041553;28;20029;-74
2023/08/30 02:01:38;;;;;;;0.10;0.10;;;12.40;99.90;;;;;;5041741;28;20072;-75
2023/08/30 02:04:04;;;;;;;0.03;0.03;;;12.40;99.90;;;;;;5037663;28;20488;-74
2023/08/30 02:06:45;;;;;;;0.10;0.10;;;12.30;99.90;;;;;;5041681;28;20112;-74
2023/08/30 02:09:36;;;;;;;0.30;0.30;;;12.50;99.90;;;;;;5032052;28;20359;-74
2023/08/30 02:12:07;;;;;;;0.10;0.10;;;12.40;99.90;;;;;;5041141;28;20041;-73
2023/08/30 02:14:33;;;;;;;0.10;0.10;;;12.40;99.90;;;;;;5040380;28;20067;-73
2023/08/30 02:16:59;;;;;;;0.10;0.10;;;12.30;99.90;;;;;;5041105;28;20040;-73
2023/08/30 02:19:25;;;;;;;0.10;0.10;;;12.40;99.90;;;;;;5041353;28;20037;-74
2023/08/30 02:21:51;;;;;;;0.10;0.10;;;12.60;99.90;;;;;;5041139;28;20029;-74
2023/08/30 02:24:17;;;;;;;0.10;0.10;;;12.70;99.90;;;;;;5041628;28;20043;-73
2023/08/30 02:26:43;;;;;;;0.00;0.00;;;12.70;99.90;;;;;;5041449;28;20021;-75
2023/08/30 02:29:09;;;;;;;0.10;0.10;;;12.80;99.90;;;;;;5040313;28;20032;-74
2023/08/30 02:31:35;;;;;;;0.00;0.00;;;12.80;99.90;;;;;;5040472;28;20044;-73
2023/08/30 02:34:02;;;;;;;0.00;0.00;;;12.80;99.90;;;;;;5041891;28;20102;-74
2023/08/30 02:36:28;;;;;;;0.32;0.32;;;12.90;99.90;;;;;;5040339;28;20029;-73
2023/08/30 02:38:53;;;;;;;0.57;0.57;;;12.70;99.90;;;;;;5040168;28;20040;-73
2023/08/30 02:41:19;;;;;;;0.10;0.10;;;12.80;99.90;;;;;;5042353;28;20021;-75
2023/08/30 02:43:45;;;;;;;0.40;0.40;;;12.90;99.90;;;;;;5042873;28;20065;-75
2023/08/30 02:46:10;;;;;;;0.45;0.45;;;12.90;99.90;;;;;;5043289;28;20021;-74
2023/08/30 02:48:36;;;;;;;0.45;0.45;;;12.80;99.90;;;;;;5043177;28;20720;-73
2023/08/30 02:51:02;;;;;;;0.20;0.20;;;12.80;99.90;;;;;;5042779;28;20029;-74
2023/08/30 02:53:27;;;;;;;0.05;0.05;;;12.70;99.90;;;;;;5042420;28;20025;-74
2023/08/30 02:55:55;;;;;;;0.00;0.00;;;12.70;99.90;;;;;;5043626;28;20033;-74
2023/08/30 02:58:21;;;;;;;0.10;0.10;;;12.60;99.90;;;;;;5041520;28;20029;-74
2023/08/30 03:00:47;;;;;;;0.10;0.10;;;12.60;99.90;;;;;;5042770;28;20036;-74
2023/08/30 03:03:12;;;;;;;0.67;0.67;;;12.50;99.90;;;;;;5042996;28;20021;-74
2023/08/30 03:05:38;;;;;;;0.00;0.00;;;12.50;99.90;;;;;;5042685;28;20361;-74
2023/08/30 03:08:04;;;;;;;0.20;0.20;;;12.50;99.90;;;;;;5042867;28;20061;-74
2023/08/30 03:10:30;;;;;;;0.50;0.50;;;12.50;99.90;;;;;;5042787;28;20028;-74
2023/08/30 03:12:55;;;;;;;0.10;0.10;;;12.40;99.90;;;;;;5042743;28;20037;-74
2023/08/30 03:15:21;;;;;;;0.20;0.20;;;12.40;99.90;;;;;;5042466;28;20047;-74
2023/08/30 03:17:47;;;;;;;0.10;0.10;;;12.30;99.90;;;;;;5042524;28;20033;-74
2023/08/30 03:20:12;;;;;;;0.10;0.10;;;12.40;99.90;;;;;;5043108;28;20034;-74
2023/08/30 03:22:38;;;;;;;0.10;0.10;;;12.30;99.90;;;;;;5042964;28;20055;-74
2023/08/30 03:25:04;;;;;;;0.17;0.17;;;12.30;99.90;;;;;;5043144;28;20524;-74
2023/08/30 03:27:30;;;;;;;0.98;0.98;;;12.30;99.90;;;;;;5042988;28;20463;-75
2023/08/30 03:29:56;;;;;;;0.10;0.10;;;12.10;99.90;;;;;;5042898;28;20043;-74
2023/08/30 03:32:22;;;;;;;0.15;0.15;;;12.20;99.90;;;;;;5042399;28;20496;-74
2023/08/30 03:34:48;;;;;;;0.10;0.10;;;12.00;99.90;;;;;;5042248;28;20055;-74
2023/08/30 03:37:14;;;;;;;0.00;0.00;;;12.00;99.90;;;;;;5039615;28;20380;-74
2023/08/30 03:39:40;;;;;;;0.10;0.10;;;12.10;99.90;;;;;;5042706;28;20029;-73
2023/08/30 03:42:06;;;;;;;2.80;0.70;;;12.10;99.90;;;;;;5040751;28;20060;-74
2023/08/30 03:44:32;;;;;;;0.15;0.15;;;12.00;99.90;;;;;;5041976;28;20021;-74
2023/08/30 03:46:58;;;;;;;0.10;0.10;;;12.00;99.90;;;;;;5040772;28;20032;-74
2023/08/30 03:49:23;;;;;;;0.17;0.17;;;12.00;99.90;;;;;;5042315;28;20017;-74
2023/08/30 03:51:49;;;;;;;0.10;0.10;;;11.90;99.90;;;;;;5041088;28;20087;-74
2023/08/30 03:54:16;;;;;;;0.10;0.10;;;12.00;99.90;;;;;;5042477;28;20812;-74
2023/08/30 03:56:45;;;;;;;0.03;0.03;;;11.90;99.90;;;;;;5042149;28;20781;-75
2023/08/30 03:59:11;;;;;;;0.10;0.10;;;11.90;99.90;;;;;;5042054;28;20043;-74
2023/08/30 04:01:37;;;;;;;0.10;0.10;;;11.90;99.90;;;;;;5041918;28;20091;-75
2023/08/30 04:04:04;;;;;;;0.10;0.10;;;11.80;99.90;;;;;;5042909;28;20563;-74
2023/08/30 04:06:30;;;;;;;0.10;0.10;;;11.80;99.90;;;;;;5045659;28;20025;-73
2023/08/30 04:08:56;;;;;;;0.10;0.10;;;11.80;99.90;;;;;;5042433;28;20032;-73
2023/08/30 04:11:22;;;;;;;0.20;0.20;;;11.80;99.90;;;;;;5037699;28;20040;-74
2023/08/30 04:13:47;;;;;;;0.10;0.10;;;11.80;99.90;;;;;;5044553;28;20037;-74
2023/08/30 04:16:13;;;;;;;0.00;0.00;;;11.90;99.90;;;;;;5046624;28;20060;-73
2023/08/30 04:18:39;;;;;;;0.10;0.10;;;11.80;99.90;;;;;;5046180;28;20033;-73
2023/08/30 04:21:06;;;;;;;1.17;1.08;;;11.70;99.90;;;;;;5046386;28;20067;-73
2023/08/30 04:23:31;;;;;;;0.15;0.15;;;11.80;99.90;;;;;;5046384;28;20025;-74
2023/08/30 04:25:57;;;;;;;0.10;0.10;;;11.60;99.90;;;;;;5045924;28;20603;-73
2023/08/30 04:28:23;;;;;;;0.10;0.10;;;11.70;99.90;;;;;;5046252;28;20029;-74
2023/08/30 04:30:48;;;;;;;0.10;0.10;;;11.60;99.90;;;;;;5045820;28;20025;-74
2023/08/30 04:33:14;;;;;;;0.20;0.20;;;11.70;99.90;;;;;;5045724;28;20752;-73
2023/08/30 04:35:40;;;;;;;0.10;0.10;;;11.70;99.90;;;;;;5048956;28;20040;-74
2023/08/30 04:38:06;;;;;;;0.10;0.10;;;11.70;99.90;;;;;;5039806;28;20594;-73
2023/08/30 04:40:32;;;;;;;0.32;0.32;;;11.70;99.90;;;;;;5038282;28;20021;-73
2023/08/30 04:43:00;;;;;;;0.10;0.10;;;11.70;99.90;;;;;;5045308;28;20091;-73
2023/08/30 04:45:27;;;;;;;0.10;0.10;;;11.70;99.90;;;;;;5043603;28;20029;-74
2023/08/30 04:47:53;;;;;;;0.10;0.10;;;11.70;99.90;;;;;;5044259;28;20803;-74
2023/08/30 04:50:19;;;;;;;0.10;0.10;;;11.60;99.90;;;;;;5045666;28;20033;-73
2023/08/30 04:52:44;;;;;;;0.10;0.10;;;11.50;99.90;;;;;;5042854;28;20029;-73
2023/08/30 04:55:10;;;;;;;0.10;0.10;;;11.50;99.90;;;;;;5041728;28;20040;-74
2023/08/30 04:57:36;;;;;;;0.35;0.25;;;11.40;99.90;;;;;;5040928;28;20051;-73
2023/08/30 05:00:04;;;;;;;0.25;0.25;;;11.50;99.90;;;;;;5043340;28;20036;-74
2023/08/30 05:02:31;;;;;;;0.10;0.10;;;11.50;99.90;;;;;;5044376;28;20206;-73
2023/08/30 05:04:56;;;;;;;0.10;0.10;;;11.60;99.90;;;;;;5040258;28;20067;-73
2023/08/30 05:07:22;;;;;;;0.40;0.40;;;11.50;99.90;;;;;;5031405;28;20125;-74
2023/08/30 05:09:48;;;;;;;0.10;0.10;;;11.60;99.90;;;;;;5035083;28;20072;-74
2023/08/30 05:12:14;;;;;;;0.10;0.10;;;11.50;99.90;;;;;;5028921;28;20037;-73
2023/08/30 05:14:40;;;;;;;0.10;0.10;;;11.60;99.90;;;;;;5041969;28;20060;-73
2023/08/30 05:17:06;;;;;;;;;;;11.50;99.90;;;;;;5045778;28;20023;-73
2023/08/30 05:19:32;;;;;;;0.10;0.10;;;11.40;99.90;;;;;;5045016;28;19913;-73
2023/08/30 05:21:58;;;;;;;0.28;0.28;;;11.40;99.90;;;;;;5045392;28;20132;-79
2023/08/30 05:24:23;;;;;;;0.10;0.10;;;11.50;99.90;;;;;;5045340;28;20025;-78
2023/08/30 05:26:49;;;;;;;0.10;0.10;;;11.60;99.90;;;;;;5042617;28;20055;-78
2023/08/30 05:29:15;;;;;;;0.10;0.10;;;11.70;99.90;;;;;;5044488;28;20034;-76
2023/08/30 05:31:41;;;;;;;0.10;0.10;;;11.70;99.90;;;;;;5043248;28;20045;-76
2023/08/30 05:34:07;;;;;;;0.00;0.00;;;11.70;99.90;;;;;;5041459;28;20303;-76
2023/08/30 05:36:33;;;;;;;1.17;0.88;;;11.70;99.90;;;;;;5039067;28;20340;-76
2023/08/30 05:38:58;;;;;;;0.10;0.10;;;11.80;99.90;;;;;;5041524;28;20556;-76
2023/08/30 05:41:24;;;;;;;0.13;0.13;;;12.00;99.90;;;;;;5042181;28;20471;-76
2023/08/30 05:43:51;;;;;;;0.10;0.10;;;12.10;99.90;;;;;;5042246;28;20777;-76
2023/08/30 05:46:17;;;;;;;0.00;0.00;;;12.20;99.90;;;;;;5041302;28;20575;-75
2023/08/30 05:48:43;;;;;;;0.10;0.10;;;12.20;99.90;;;;;;5041217;28;20039;-76
2023/08/30 05:51:09;;;;;;;0.00;0.00;;;12.20;99.90;;;;;;5040048;28;20040;-74
2023/08/30 05:53:34;;;;;;;0.00;0.00;;;12.60;99.90;;;;;;5039063;28;20058;-73
2023/08/30 05:56:00;;;;;;;0.30;0.30;;;12.80;99.90;;;;;;5040500;28;20055;-73
2023/08/30 05:58:26;;;;;;;0.10;0.10;;;13.10;99.90;;;;;;5042203;28;20033;-73
2023/08/30 06:00:51;;;;;;;0.00;0.00;;;13.40;99.90;;;;;;5044131;28;20021;-74
2023/08/30 06:03:17;;;;;;;0.10;0.10;;;13.90;99.90;;;;;;5043753;28;20041;-73
2023/08/30 06:05:43;;;;;;;0.10;0.10;;;14.30;99.90;;;;;;5044726;28;20116;-73
2023/08/30 06:08:09;;;;;;;0.10;0.10;;;14.50;99.90;;;;;;5044276;28;20141;-73
2023/08/30 06:10:36;;;;;;;0.00;0.00;;;14.70;99.90;;;;;;5044058;28;20040;-73
2023/08/30 06:13:02;;;;;;;0.00;0.00;;;14.70;99.90;;;;;;5042377;28;20090;-73
2023/08/30 06:15:28;;;;;;;0.00;0.00;;;14.90;99.90;;;;;;5043905;28;20052;-74
2023/08/30 06:17:54;;;;;;;0.32;0.32;;;15.10;99.90;;;;;;5042524;28;20033;-73
2023/08/30 06:20:20;;;;;;;0.10;0.10;;;15.10;99.90;;;;;;5036575;28;20541;-74
2023/08/30 06:22:45;;;;;;;0.00;0.00;;;15.00;99.90;;;;;;5042821;28;20055;-73
2023/08/30 06:25:11;;;;;;;0.00;0.00;;;14.90;99.90;;;;;;5039154;28;20109;-74
2023/08/30 06:27:55;;;;;;;0.13;0.13;;;14.90;99.90;;;;;;5036665;28;20029;-73
2023/08/30 06:30:20;;;;;;;0.10;0.10;;;15.00;99.90;;;;;;5032924;28;20032;-74
2023/08/30 06:32:46;;;;;;;0.00;0.00;;;15.00;99.90;;;;;;5037916;28;20055;-74
2023/08/30 06:35:12;;;;;;;0.00;0.00;;;15.30;99.90;;;;;;5040354;28;20029;-73
2023/08/30 06:37:37;;;;;;;0.00;0.00;;;15.40;99.90;;;;;;5030459;28;20026;-73
2023/08/30 06:40:04;;;;;;;0.10;0.10;;;15.60;99.90;;;;;;5029685;28;20055;-73
2023/08/30 06:42:29;;;;;;;0.08;0.08;;;15.90;99.40;;;;;;5035667;28;20151;-73
2023/08/30 06:44:55;;;;;;;0.10;0.10;;;16.40;98.90;;;;;;5040630;28;20048;-73
2023/08/30 06:47:21;;;;;;;0.00;0.00;;;16.90;98.30;;;;;;5042807;28;20025;-73
2023/08/30 06:49:46;;;;;;;0.00;0.00;;;17.60;96.40;;;;;;5033797;28;20083;-73
2023/08/30 06:52:12;;;;;;;0.00;0.00;;;18.00;94.90;;;;;;5042901;28;20041;-74
2023/08/30 06:54:38;;;;;;;0.00;0.00;;;18.30;94.90;;;;;;5041661;28;20115;-74
2023/08/30 06:57:05;;;;;;;0.00;0.00;;;19.00;94.00;;;;;;5041698;28;20723;-73
2023/08/30 06:59:31;;;;;;;0.00;0.00;;;19.40;91.00;;;;;;5041824;28;20736;-72
2023/08/30 07:01:57;;;;;;;0.00;0.00;;;19.80;90.90;;;;;;5042031;28;20108;-74
2023/08/30 07:04:22;;;;;;;0.00;0.00;;;20.10;89.80;;;;;;5040293;28;20748;-73
2023/08/30 07:06:49;;;;;;;0.00;0.00;;;19.70;89.00;;;;;;5037852;28;20032;-73
2023/08/30 07:09:14;;;;;;;0.00;0.00;;;20.10;88.60;;;;;;5034050;28;20025;-71
2023/08/30 07:11:44;;;;;;;0.10;0.10;;;21.30;85.40;;;;;;5030055;28;20059;-73
2023/08/30 07:14:10;;;;;;;0.00;0.00;;;21.50;87.20;;;;;;5037302;28;20659;-71
2023/08/30 07:16:35;;;;;;;0.00;0.00;;;21.50;84.30;;;;;;5037543;28;20761;-73
2023/08/30 07:19:02;;;;;;;0.00;0.00;;;21.60;84.60;;;;;;5043718;28;20040;-72
2023/08/30 07:21:27;;;;;;;0.00;0.00;;;22.30;82.30;;;;;;5041808;28;20033;-72
2023/08/30 07:23:53;;;;;;;0.00;0.00;;;22.80;80.10;;;;;;5042479;28;20048;-73
2023/08/30 07:26:19;;;;;;;0.00;0.00;;;22.90;79.30;;;;;;5042217;28;20487;-71
2023/08/30 07:28:45;;;;;;;0.05;0.05;;;23.10;78.70;;;;;;5030919;28;20135;-72
2023/08/30 07:31:15;;;;;;;0.00;0.00;;;23.60;76.70;;;;;;5032984;28;20323;-72
2023/08/30 07:33:41;;;;;;;0.00;0.00;;;23.70;74.50;;;;;;5037825;28;20059;-72
2023/08/30 07:36:08;;;;;;;0.00;0.00;;;24.10;72.60;;;;;;5037821;28;20033;-71
2023/08/30 07:38:34;;;;;;;0.00;0.00;;;24.40;73.00;;;;;;5036552;28;20040;-73
2023/08/30 07:41:01;;;;;;;0.00;0.00;;;24.60;72.60;;;;;;5035872;28;20073;-72
2023/08/30 07:43:26;;;;;;;0.00;0.00;;;25.00;72.10;;;;;;5036629;28;20029;-71
2023/08/30 07:45:52;;;;;;;0.00;0.00;;;25.70;68.80;;;;;;5034463;28;20029;-72
2023/08/30 07:48:18;;;;;;;0.00;0.00;;;25.80;67.30;;;;;;5033140;28;20547;-71
2023/08/30 07:50:43;;;;;;;0.00;0.00;;;25.50;67.50;;;;;;5035461;28;20064;-72
2023/08/30 07:53:10;;;;;;;0.43;0.43;;;25.50;67.90;;;;;;5038617;28;20717;-71
2023/08/30 07:55:36;;;;;;;0.00;0.00;;;25.70;67.60;;;;;;5035608;28;20036;-71
2023/08/30 07:58:03;;;;;;;0.45;0.30;;;25.80;65.40;;;;;;5041933;28;20032;-72
2023/08/30 08:00:29;;;;;;;0.00;0.00;;;26.20;64.60;;;;;;5038607;28;20017;-72
2023/08/30 08:02:54;;;;;;;;;;;26.60;64.70;;;;;;5042193;28;20025;-71
2023/08/30 08:05:20;;;;;;;0.00;0.00;;;26.70;63.80;;;;;;5041679;28;19909;-72
2023/08/30 08:07:50;;;;;;;0.00;0.00;;;27.10;63.60;;;;;;5041594;28;20116;-72
2023/08/30 08:10:15;;;;;;;0.00;0.00;;;25.70;63.70;;;;;;5026831;28;20128;-72
2023/08/30 08:12:41;;;;;;;0.57;0.57;;;26.50;62.90;;;;;;5031168;28;20029;-72
2023/08/30 08:15:07;;;;;;;0.00;0.00;;;25.70;63.80;;;;;;5039077;28;20045;-71
2023/08/30 08:17:33;;;;;;;0.00;0.00;;;26.20;62.60;;;;;;5040524;28;20119;-71
2023/08/30 08:19:58;;;;;;;0.00;0.00;;;26.10;61.00;;;;;;5041080;28;20399;-72
2023/08/30 08:22:24;;;;;;;0.00;0.00;;;27.00;60.40;;;;;;5040286;28;20471;-72
2023/08/30 08:24:51;;;;;;;0.17;0.17;;;27.60;60.10;;;;;;5042080;28;20021;-71
2023/08/30 08:27:17;;;;;;;0.00;0.00;;;27.20;61.50;;;;;;5033836;28;20017;-72
2023/08/30 08:29:43;;;;;;;0.00;0.00;;;27.40;59.90;;;;;;5040224;28;20028;-71
2023/08/30 08:32:08;;;;;;;0.00;0.00;;;26.70;58.40;;;;;;5041182;28;20380;-74
2023/08/30 08:34:34;;;;;;;0.00;0.00;;;27.50;59.80;;;;;;5042453;28;20064;-71
2023/08/30 08:37:00;;;;;;;0.00;0.00;;;27.40;58.40;;;;;;5039151;28;20060;-72
2023/08/30 08:39:25;;;;;;;0.00;0.00;;;28.50;57.00;;;;;;5039507;28;20029;-73
2023/08/30 08:41:54;;;;;;;0.00;0.00;;;28.80;58.00;;;;;;5033836;28;20021;-72
2023/08/30 08:44:22;;;;;;;0.00;0.00;;;29.50;56.50;;;;;;5034749;28;20049;-73
2023/08/30 08:46:49;;;;;;;0.00;0.00;;;30.10;55.60;;;;;;5038598;28;20032;-72
2023/08/30 08:49:16;;;;;;;0.00;0.00;;;29.50;54.30;;;;;;5039409;28;20183;-72
2023/08/30 08:51:43;;;;;;;0.00;0.00;;;30.00;54.10;;;;;;5040718;28;20020;-72
2023/08/30 08:54:10;;;;;;;0.00;0.00;;;30.30;55.00;;;;;;5041478;28;20033;-72
2023/08/30 08:56:36;;;;;;;0.00;0.00;;;29.50;51.10;;;;;;5040898;28;20710;-73
2023/08/30 08:59:03;;;;;;;0.00;0.00;;;29.60;54.00;;;;;;5042872;28;20028;-72
2023/08/30 09:01:29;;;;;;;0.00;0.00;;;30.00;54.50;;;;;;5045750;28;20191;-73
2023/08/30 09:03:54;;;;;;;0.00;0.00;;;30.40;52.10;;;;;;5040551;28;20108;-72
2023/08/30 09:06:23;;;;;;;;;;;30.80;52.90;;;;;;5042823;28;20099;-73
2023/08/30 09:08:49;;;;;;;0.00;0.00;;;30.70;51.60;;;;;;5045145;28;19909;-72
2023/08/30 09:11:14;;;;;;;;;;;30.20;52.50;;;;;;5045928;28;20017;-74
2023/08/30 09:13:43;;;;;;;0.00;0.00;;;30.90;51.90;;;;;;5042771;28;19920;-72
2023/08/30 09:16:15;;;;;;;0.00;0.00;;;30.90;52.00;;;;;;5045319;28;20058;-73
2023/08/30 09:18:41;;;;;;;0.00;0.00;;;31.10;51.20;;;;;;5045436;28;20175;-72
2023/08/30 09:21:09;;;;;;;0.00;0.00;;;31.00;50.40;;;;;;5045237;28;20025;-72
2023/08/30 09:23:35;;;;;;;0.00;0.00;;;31.00;49.50;;;;;;5044505;28;20074;-71
2023/08/30 09:26:02;;;;;;;0.00;0.00;;;30.30;50.40;;;;;;5043964;28;20033;-72
2023/08/30 09:28:28;;;;;;;0.00;0.00;;;30.70;50.90;;;;;;5042876;28;20098;-71
2023/08/30 09:30:54;;;;;;;0.00;0.00;;;29.30;53.90;;;;;;5044479;28;20017;-72
2023/08/30 09:33:33;;;;;;;0.00;0.00;;;29.40;53.00;;;;;;5044224;28;20061;-72
2023/08/30 09:35:59;;;;;;;0.00;0.00;;;30.40;51.00;;;;;;5038465;28;20389;-72
2023/08/30 09:38:25;;;;;;;;;;;30.70;51.60;;;;;;5042659;28;20495;-72
2023/08/30 09:40:51;;;;;;;0.00;0.00;;;30.70;50.90;;;;;;5043383;28;19909;-72
2023/08/30 09:43:23;;;;;;;0.00;0.00;;;31.00;50.90;;;;;;5044044;28;20294;-72
2023/08/30 09:45:50;;;;;;;0.00;0.00;;;30.70;50.90;;;;;;5044750;28;20033;-72
2023/08/30 09:48:22;;;;;;;0.00;0.00;;;31.00;50.90;;;;;;5044907;28;20552;-73
2023/08/30 09:50:52;;;;;;;0.00;0.00;;;31.40;50.70;;;;;;5044867;28;20024;-72
2023/08/30 09:53:21;;;;;;;3.40;1.73;;;30.50;49.50;;;;;;5044559;28;20044;-75
2023/08/30 09:55:49;;;;;;;0.00;0.00;;;30.30;49.50;;;;;;5045144;28;20021;-73
2023/08/30 09:58:15;;;;;;;0.00;0.00;;;30.80;49.00;;;;;;5043169;28;20535;-73
2023/08/30 10:00:42;;;;;;;0.38;0.38;;;30.40;49.60;;;;;;5044683;28;20062;-73
2023/08/30 10:03:08;;;;;;;0.00;0.00;;;31.20;50.40;;;;;;5042880;28;20498;-72
2023/08/30 10:05:35;;;;;;;0.00;0.00;;;30.60;50.10;;;;;;5044780;28;20110;-72
2023/08/30 10:08:03;;;;;;;0.00;0.00;;;31.20;51.10;;;;;;5044878;28;20047;-73
2023/08/30 10:10:31;;;;;;;0.00;0.00;;;31.40;49.70;;;;;;5041412;28;20167;-72
2023/08/30 10:12:57;;;;;;;0.00;0.00;;;28.60;51.40;;;;;;5044331;28;20131;-72
2023/08/30 10:15:26;;;;;;;0.00;0.00;;;28.90;51.90;;;;;;5043940;28;20021;-72
2023/08/30 10:17:56;;;;;;;0.00;0.00;;;28.00;53.00;;;;;;5044836;28;20622;-72
2023/08/30 10:20:22;;;;;;;0.00;0.00;;;26.10;56.10;;;;;;5044572;28;20758;-72
2023/08/30 10:22:50;;;;;;;0.00;0.00;;;26.20;56.30;;;;;;5042643;28;20036;-72
2023/08/30 10:25:23;;;;;;;0.00;0.00;;;26.60;59.40;;;;;;5044354;28;20070;-71
2023/08/30 10:27:50;;;;;;;0.00;0.00;;;26.50;57.00;;;;;;5044202;28;20884;-72
2023/08/30 10:30:17;;;;;;;0.00;0.00;;;26.20;55.20;;;;;;5042581;28;20025;-73
2023/08/30 10:32:44;;;;;;;0.00;0.00;;;25.30;56.40;;;;;;5043813;28;20500;-72
2023/08/30 10:35:18;;;;;;;0.00;0.00;;;24.10;58.10;;;;;;5043885;28;20061;-73
2023/08/30 10:37:55;;;;;;;0.00;0.00;;;23.60;60.50;;;;;;5043491;28;20025;-72
2023/08/30 10:40:22;;;;;;;0.00;0.00;;;24.20;62.20;;;;;;5043516;28;20029;-73
2023/08/30 10:43:04;;;;;;;0.00;0.00;;;24.40;61.20;;;;;;5042507;28;20082;-73
2023/08/30 10:45:30;;;;;;;0.00;0.00;;;24.70;61.70;;;;;;5042856;28;20507;-72
2023/08/30 10:47:58;;;;;;;0.00;0.00;;;25.30;59.10;;;;;;5043263;28;20105;-71
2023/08/30 10:50:30;;;;;;;0.00;0.00;;;24.80;58.40;;;;;;5042432;28;20108;-72
2023/08/30 10:52:56;;;;;;;0.00;0.00;;;24.70;57.80;;;;;;5041255;28;20634;-72
2023/08/30 10:55:22;;;;;;;0.00;0.00;;;25.00;57.00;;;;;;5043267;28;20120;-71
2023/08/30 10:58:02;;;;;;;0.30;0.25;;;24.90;56.80;;;;;;5043291;28;20108;-73
2023/08/30 11:00:29;;;;;;;0.00;0.00;;;23.90;58.90;;;;;;5043559;28;20025;-75
2023/08/30 11:02:55;;;;;;;0.00;0.00;;;24.30;61.30;;;;;;5043050;28;20131;-73
2023/08/30 11:05:25;;;;;;;0.10;0.10;;;24.90;59.20;;;;;;5042955;28;20035;-73
2023/08/30 11:07:52;;;;;;;0.20;0.20;;;25.20;60.30;;;;;;5042932;28;20064;-75
2023/08/30 11:10:18;;;;;;;;;;;25.10;56.70;;;;;;5043161;28;20025;-72
2023/08/30 11:12:44;;;;;;;0.15;0.10;;;25.30;58.90;;;;;;5042555;28;20345;-72
2023/08/30 11:15:12;;;;;;;0.00;0.00;;;25.40;58.10;;;;;;5042703;28;20397;-72
2023/08/30 11:17:39;;;;;;;0.00;0.00;;;25.40;58.80;;;;;;5040887;28;20029;-72
2023/08/30 11:20:06;;;;;;;;;;;24.60;57.90;;;;;;5044255;28;20559;-72
2023/08/30 11:22:34;;;;;;;0.00;0.00;;;24.70;60.10;;;;;;5043598;28;19909;-72
2023/08/30 11:25:00;;;;;;;0.93;0.30;;;25.00;60.20;;;;;;5043373;28;20021;-74
2023/08/30 11:27:25;;;;;;;0.00;0.00;;;24.90;61.20;;;;;;5043149;28;20043;-73
2023/08/30 11:29:51;;;;;;;0.00;0.00;;;24.90;60.70;;;;;;5043118;28;20358;-74
2023/08/30 11:32:16;;;;;;;0.10;0.10;;;25.50;60.10;;;;;;5033366;28;20069;-73
2023/08/30 11:34:42;;;;;;;0.00;0.00;;;25.40;59.50;;;;;;5042866;28;20057;-72
2023/08/30 11:37:08;;;;;;;0.00;0.00;;;25.00;56.40;;;;;;5042116;28;20582;-73
2023/08/30 11:39:35;;;;;;;0.10;0.10;;;24.30;56.40;;;;;;5041625;28;20502;-73
2023/08/30 11:42:05;;;;;;;0.00;0.00;;;24.00;58.10;;;;;;5042812;28;20033;-72
2023/08/30 11:44:31;;;;;;;0.00;0.00;;;23.90;58.80;;;;;;5042727;28;20397;-72
2023/08/30 11:46:57;;;;;;;;;;;24.10;63.50;;;;;;5043276;28;20436;-71
2023/08/30 11:49:23;;;;;;;0.20;0.20;;;24.10;61.60;;;;;;5041396;28;19916;-74
2023/08/30 11:51:49;;;;;;;0.00;0.00;;;24.80;60.00;;;;;;5041578;28;20025;-73
2023/08/30 11:54:15;;;;;;;0.03;0.03;;;24.90;58.80;;;;;;5043296;28;20491;-72
2023/08/30 11:56:42;;;;;;;0.00;0.00;;;25.00;59.40;;;;;;5043231;28;20017;-72
2023/08/30 11:59:17;;;;;;;;;;;24.70;57.70;;;;;;5043261;28;20111;-72
2023/08/30 12:01:43;;;;;;;0.00;0.00;;;24.60;58.40;;;;;;5042981;28;19909;-71
2023/08/30 12:04:10;;;;;;;0.00;0.00;;;23.90;56.10;;;;;;5035044;28;20044;-72
2023/08/30 12:06:36;;;;;;;0.00;0.00;;;23.60;58.20;;;;;;5043120;28;20961;-72
2023/08/30 12:09:03;;;;;;;0.00;0.00;;;23.40;59.10;;;;;;5042799;28;20550;-72
2023/08/30 12:11:31;;;;;;;0.00;0.00;;;23.60;61.80;;;;;;5042952;28;20307;-72
2023/08/30 12:14:02;;;;;;;0.00;0.00;;;24.00;62.70;;;;;;5042200;28;20765;-73
2023/08/30 12:16:28;;;;;;;0.20;0.20;;;23.90;62.20;;;;;;5043207;28;20493;-75
2023/08/30 12:18:54;;;;;;;0.00;0.00;;;24.00;62.50;;;;;;5041340;28;20033;-73
2023/08/30 12:21:19;;;;;;;0.00;0.00;;;24.30;62.50;;;;;;5042350;28;20029;-71
2023/08/30 12:23:45;;;;;;;0.00;0.00;;;24.40;57.00;;;;;;5042749;28;20106;-73
2023/08/30 12:26:12;;;;;;;0.00;0.00;;;24.50;60.20;;;;;;5044938;28;20052;-73
2023/08/30 12:28:44;;;;;;;0.00;0.00;;;24.20;62.40;;;;;;5044474;28;20617;-72
2023/08/30 12:31:10;;;;;;;0.00;0.00;;;25.00;60.20;;;;;;5045872;28;20032;-72
2023/08/30 12:33:37;;;;;;;0.00;0.00;;;24.90;60.00;;;;;;5044341;28;20139;-72
2023/08/30 12:36:03;;;;;;;0.00;0.00;;;24.80;59.60;;;;;;5046049;28;20403;-73
2023/08/30 12:38:29;;;;;;;;;;;24.80;59.10;;;;;;5043263;28;20088;-73
2023/08/30 12:40:55;;;;;;;;;;;24.70;61.30;;;;;;5045983;28;19999;-73
2023/08/30 12:43:22;;;;;;;0.00;0.00;;;23.80;59.90;;;;;;5044365;28;20368;-72
2023/08/30 12:45:48;;;;;;;;;;;23.90;60.10;;;;;;5044713;28;20041;-74
2023/08/30 12:48:15;;;;;;;;;;;23.40;59.80;;;;;;5046980;28;19908;-73